sensor_id;sensor_type;location;lat;lon;timestamp;temperature;humidity
45044;DHT22;30784;48.490;9.688;2022-11-21T00:00:38;6.60;63.60
45044;DHT22;30784;48.490;9.688;2022-11-21T00:03:04;6.60;63.50
45044;DHT22;30784;48.490;9.688;2022-11-21T00:05:31;6.60;63.60
45044;DHT22;30784;48.490;9.688;2022-11-21T00:07:57;6.60;63.60
45044;DHT22;30784;48.490;9.688;2022-11-21T00:10:24;6.70;63.80
45044;DHT22;30784;48.490;9.688;2022-11-21T00:12:54;6.70;63.80
45044;DHT22;30784;48.490;9.688;2022-11-21T00:15:20;6.70;64.00
45044;DHT22;30784;48.490;9.688;2022-11-21T00:17:46;6.70;63.90
45044;DHT22;30784;48.490;9.688;2022-11-21T00:20:12;6.70;64.00
45044;DHT22;30784;48.490;9.688;2022-11-21T00:22:37;6.70;64.00
45044;DHT22;30784;48.490;9.688;2022-11-21T00:25:03;6.70;63.90
45044;DHT22;30784;48.490;9.688;2022-11-21T00:27:29;6.70;63.90
45044;DHT22;30784;48.490;9.688;2022-11-21T00:29:54;6.70;63.90
45044;DHT22;30784;48.490;9.688;2022-11-21T00:32:20;6.80;64.00
45044;DHT22;30784;48.490;9.688;2022-11-21T00:34:45;6.80;64.00
45044;DHT22;30784;48.490;9.688;2022-11-21T00:37:11;6.80;64.50
45044;DHT22;30784;48.490;9.688;2022-11-21T00:39:36;6.80;64.10
45044;DHT22;30784;48.490;9.688;2022-11-21T00:42:02;6.70;64.00
45044;DHT22;30784;48.490;9.688;2022-11-21T00:44:28;6.80;64.10
45044;DHT22;30784;48.490;9.688;2022-11-21T00:46:53;6.70;64.00
45044;DHT22;30784;48.490;9.688;2022-11-21T00:49:19;6.70;64.10
45044;DHT22;30784;48.490;9.688;2022-11-21T00:51:44;6.70;64.20
45044;DHT22;30784;48.490;9.688;2022-11-21T00:54:10;6.70;64.20
45044;DHT22;30784;48.490;9.688;2022-11-21T00:56:35;6.70;64.10
45044;DHT22;30784;48.490;9.688;2022-11-21T00:59:01;6.70;64.10
45044;DHT22;30784;48.490;9.688;2022-11-21T01:01:26;6.70;64.10
45044;DHT22;30784;48.490;9.688;2022-11-21T01:03:52;6.70;64.10
45044;DHT22;30784;48.490;9.688;2022-11-21T01:06:17;6.60;64.00
45044;DHT22;30784;48.490;9.688;2022-11-21T01:08:44;6.60;64.00
45044;DHT22;30784;48.490;9.688;2022-11-21T01:11:19;6.60;64.00
45044;DHT22;30784;48.490;9.688;2022-11-21T01:13:46;6.60;64.00
45044;DHT22;30784;48.490;9.688;2022-11-21T01:16:18;6.60;64.10
45044;DHT22;30784;48.490;9.688;2022-11-21T01:18:44;6.50;64.00
45044;DHT22;30784;48.490;9.688;2022-11-21T01:21:18;6.50;64.00
45044;DHT22;30784;48.490;9.688;2022-11-21T01:23:45;6.50;64.10
45044;DHT22;30784;48.490;9.688;2022-11-21T01:26:13;6.40;64.00
45044;DHT22;30784;48.490;9.688;2022-11-21T01:28:39;6.40;64.00
45044;DHT22;30784;48.490;9.688;2022-11-21T01:31:17;6.40;64.00
45044;DHT22;30784;48.490;9.688;2022-11-21T01:33:43;6.40;64.00
45044;DHT22;30784;48.490;9.688;2022-11-21T01:36:17;6.40;64.00
45044;DHT22;30784;48.490;9.688;2022-11-21T01:38:45;6.40;64.10
45044;DHT22;30784;48.490;9.688;2022-11-21T01:41:13;6.40;64.20
45044;DHT22;30784;48.490;9.688;2022-11-21T01:43:39;6.40;64.20
45044;DHT22;30784;48.490;9.688;2022-11-21T01:48:38;6.40;64.20
45044;DHT22;30784;48.490;9.688;2022-11-21T01:51:15;6.40;64.20
45044;DHT22;30784;48.490;9.688;2022-11-21T01:53:47;6.40;64.30
45044;DHT22;30784;48.490;9.688;2022-11-21T01:56:15;6.40;64.30
45044;DHT22;30784;48.490;9.688;2022-11-21T01:58:45;6.40;64.20
45044;DHT22;30784;48.490;9.688;2022-11-21T02:01:12;6.40;64.20
45044;DHT22;30784;48.490;9.688;2022-11-21T02:03:41;6.50;64.20
45044;DHT22;30784;48.490;9.688;2022-11-21T02:06:07;6.50;64.30
45044;DHT22;30784;48.490;9.688;2022-11-21T02:08:34;6.50;64.10
45044;DHT22;30784;48.490;9.688;2022-11-21T02:13:46;6.50;64.00
45044;DHT22;30784;48.490;9.688;2022-11-21T02:16:12;6.50;64.10
45044;DHT22;30784;48.490;9.688;2022-11-21T02:18:41;6.50;64.20
45044;DHT22;30784;48.490;9.688;2022-11-21T02:21:19;6.50;64.20
45044;DHT22;30784;48.490;9.688;2022-11-21T02:23:56;6.50;64.30
45044;DHT22;30784;48.490;9.688;2022-11-21T02:26:25;6.50;64.80
45044;DHT22;30784;48.490;9.688;2022-11-21T02:28:51;6.50;64.30
45044;DHT22;30784;48.490;9.688;2022-11-21T02:31:19;6.50;64.30
45044;DHT22;30784;48.490;9.688;2022-11-21T02:33:48;6.50;64.30
45044;DHT22;30784;48.490;9.688;2022-11-21T02:36:41;6.50;64.20
45044;DHT22;30784;48.490;9.688;2022-11-21T02:39:13;6.50;64.10
45044;DHT22;30784;48.490;9.688;2022-11-21T02:41:53;6.50;64.10
45044;DHT22;30784;48.490;9.688;2022-11-21T02:44:42;6.50;63.90
45044;DHT22;30784;48.490;9.688;2022-11-21T02:47:09;6.50;63.90
45044;DHT22;30784;48.490;9.688;2022-11-21T02:52:35;6.40;63.50
45044;DHT22;30784;48.490;9.688;2022-11-21T02:55:04;6.40;63.50
45044;DHT22;30784;48.490;9.688;2022-11-21T02:57:33;6.30;63.50
45044;DHT22;30784;48.490;9.688;2022-11-21T02:59:58;6.30;63.60
45044;DHT22;30784;48.490;9.688;2022-11-21T03:02:24;6.20;63.60
45044;DHT22;30784;48.490;9.688;2022-11-21T03:04:53;6.20;63.80
45044;DHT22;30784;48.490;9.688;2022-11-21T03:07:18;6.10;63.80
45044;DHT22;30784;48.490;9.688;2022-11-21T03:09:44;6.10;64.00
45044;DHT22;30784;48.490;9.688;2022-11-21T03:12:10;6.10;64.00
45044;DHT22;30784;48.490;9.688;2022-11-21T03:14:36;6.00;64.00
45044;DHT22;30784;48.490;9.688;2022-11-21T03:17:03;6.00;64.10
45044;DHT22;30784;48.490;9.688;2022-11-21T03:19:28;6.00;64.20
45044;DHT22;30784;48.490;9.688;2022-11-21T03:21:54;5.90;64.20
45044;DHT22;30784;48.490;9.688;2022-11-21T03:24:20;5.90;64.30
45044;DHT22;30784;48.490;9.688;2022-11-21T03:26:46;5.90;64.40
45044;DHT22;30784;48.490;9.688;2022-11-21T03:29:11;5.90;64.50
45044;DHT22;30784;48.490;9.688;2022-11-21T03:31:37;5.90;64.70
45044;DHT22;30784;48.490;9.688;2022-11-21T03:34:05;5.80;64.80
45044;DHT22;30784;48.490;9.688;2022-11-21T03:36:30;5.90;65.00
45044;DHT22;30784;48.490;9.688;2022-11-21T03:38:56;5.80;65.00
45044;DHT22;30784;48.490;9.688;2022-11-21T03:41:26;5.80;65.20
45044;DHT22;30784;48.490;9.688;2022-11-21T03:43:58;5.80;65.20
45044;DHT22;30784;48.490;9.688;2022-11-21T03:46:25;5.70;65.30
45044;DHT22;30784;48.490;9.688;2022-11-21T03:48:51;5.80;66.00
45044;DHT22;30784;48.490;9.688;2022-11-21T03:51:18;5.80;65.50
45044;DHT22;30784;48.490;9.688;2022-11-21T03:53:43;5.80;65.60
45044;DHT22;30784;48.490;9.688;2022-11-21T03:56:09;5.90;65.70
45044;DHT22;30784;48.490;9.688;2022-11-21T03:58:34;5.80;65.80
45044;DHT22;30784;48.490;9.688;2022-11-21T04:01:00;5.80;65.90
45044;DHT22;30784;48.490;9.688;2022-11-21T04:03:26;5.90;66.00
45044;DHT22;30784;48.490;9.688;2022-11-21T04:05:54;5.90;66.10
45044;DHT22;30784;48.490;9.688;2022-11-21T04:08:20;5.90;66.10
45044;DHT22;30784;48.490;9.688;2022-11-21T04:10:50;6.00;66.20
45044;DHT22;30784;48.490;9.688;2022-11-21T04:13:16;5.90;66.20
45044;DHT22;30784;48.490;9.688;2022-11-21T04:15:42;5.90;66.20
45044;DHT22;30784;48.490;9.688;2022-11-21T04:18:07;6.00;66.20
45044;DHT22;30784;48.490;9.688;2022-11-21T04:20:36;6.00;66.20
45044;DHT22;30784;48.490;9.688;2022-11-21T04:23:02;6.20;66.30
45044;DHT22;30784;48.490;9.688;2022-11-21T04:25:28;6.10;66.50
45044;DHT22;30784;48.490;9.688;2022-11-21T04:27:58;6.10;66.20
45044;DHT22;30784;48.490;9.688;2022-11-21T04:30:24;6.10;66.20
45044;DHT22;30784;48.490;9.688;2022-11-21T04:32:53;6.30;66.30
45044;DHT22;30784;48.490;9.688;2022-11-21T04:35:23;6.10;66.10
45044;DHT22;30784;48.490;9.688;2022-11-21T04:37:52;6.20;66.10
45044;DHT22;30784;48.490;9.688;2022-11-21T04:40:18;6.20;66.20
45044;DHT22;30784;48.490;9.688;2022-11-21T04:42:46;6.20;66.20
45044;DHT22;30784;48.490;9.688;2022-11-21T04:45:13;6.20;66.20
45044;DHT22;30784;48.490;9.688;2022-11-21T04:47:40;6.30;66.20
45044;DHT22;30784;48.490;9.688;2022-11-21T04:50:07;6.30;66.30
45044;DHT22;30784;48.490;9.688;2022-11-21T04:52:33;6.30;66.20
45044;DHT22;30784;48.490;9.688;2022-11-21T04:55:02;6.30;66.20
45044;DHT22;30784;48.490;9.688;2022-11-21T04:57:36;6.40;66.20
45044;DHT22;30784;48.490;9.688;2022-11-21T05:00:05;6.40;66.20
45044;DHT22;30784;48.490;9.688;2022-11-21T05:02:34;6.40;66.10
45044;DHT22;30784;48.490;9.688;2022-11-21T05:05:05;6.40;66.20
45044;DHT22;30784;48.490;9.688;2022-11-21T05:07:31;6.40;66.10
45044;DHT22;30784;48.490;9.688;2022-11-21T05:09:56;6.40;66.00
45044;DHT22;30784;48.490;9.688;2022-11-21T05:12:24;6.40;66.00
45044;DHT22;30784;48.490;9.688;2022-11-21T05:15:09;6.40;65.90
45044;DHT22;30784;48.490;9.688;2022-11-21T05:17:35;6.50;65.80
45044;DHT22;30784;48.490;9.688;2022-11-21T05:20:03;6.50;65.80
45044;DHT22;30784;48.490;9.688;2022-11-21T05:22:29;6.40;65.60
45044;DHT22;30784;48.490;9.688;2022-11-21T05:24:55;6.50;65.60
45044;DHT22;30784;48.490;9.688;2022-11-21T05:27:21;6.50;65.60
45044;DHT22;30784;48.490;9.688;2022-11-21T05:29:46;6.40;65.50
45044;DHT22;30784;48.490;9.688;2022-11-21T05:32:12;6.50;65.50
45044;DHT22;30784;48.490;9.688;2022-11-21T05:34:37;6.40;65.40
45044;DHT22;30784;48.490;9.688;2022-11-21T05:37:04;6.40;65.40
45044;DHT22;30784;48.490;9.688;2022-11-21T05:39:29;6.50;65.50
45044;DHT22;30784;48.490;9.688;2022-11-21T05:41:55;6.40;65.40
45044;DHT22;30784;48.490;9.688;2022-11-21T05:44:21;6.50;65.50
45044;DHT22;30784;48.490;9.688;2022-11-21T05:46:46;6.40;65.30
45044;DHT22;30784;48.490;9.688;2022-11-21T05:49:12;6.40;65.30
45044;DHT22;30784;48.490;9.688;2022-11-21T05:51:38;6.40;65.40
45044;DHT22;30784;48.490;9.688;2022-11-21T05:54:03;6.40;65.40
45044;DHT22;30784;48.490;9.688;2022-11-21T05:56:29;6.40;65.50
45044;DHT22;30784;48.490;9.688;2022-11-21T05:58:55;6.40;65.60
45044;DHT22;30784;48.490;9.688;2022-11-21T06:01:22;6.40;65.60
45044;DHT22;30784;48.490;9.688;2022-11-21T06:04:07;6.40;65.60
45044;DHT22;30784;48.490;9.688;2022-11-21T06:06:33;6.40;65.60
45044;DHT22;30784;48.490;9.688;2022-11-21T06:08:58;6.40;65.60
45044;DHT22;30784;48.490;9.688;2022-11-21T06:11:24;6.40;65.60
45044;DHT22;30784;48.490;9.688;2022-11-21T06:13:50;6.40;65.70
45044;DHT22;30784;48.490;9.688;2022-11-21T06:16:17;6.40;65.60
45044;DHT22;30784;48.490;9.688;2022-11-21T06:18:45;6.40;65.60
45044;DHT22;30784;48.490;9.688;2022-11-21T06:21:23;6.40;65.60
45044;DHT22;30784;48.490;9.688;2022-11-21T06:23:53;6.40;65.60
45044;DHT22;30784;48.490;9.688;2022-11-21T06:26:20;6.40;65.60
45044;DHT22;30784;48.490;9.688;2022-11-21T06:28:47;6.50;65.70
45044;DHT22;30784;48.490;9.688;2022-11-21T06:33:43;6.50;65.60
45044;DHT22;30784;48.490;9.688;2022-11-21T06:36:10;6.50;65.60
45044;DHT22;30784;48.490;9.688;2022-11-21T06:38:36;6.50;65.60
45044;DHT22;30784;48.490;9.688;2022-11-21T06:41:11;6.50;65.50
45044;DHT22;30784;48.490;9.688;2022-11-21T06:43:37;6.50;65.50
45044;DHT22;30784;48.490;9.688;2022-11-21T06:46:02;6.50;65.50
45044;DHT22;30784;48.490;9.688;2022-11-21T06:48:32;6.50;65.40
45044;DHT22;30784;48.490;9.688;2022-11-21T06:51:22;6.50;65.40
45044;DHT22;30784;48.490;9.688;2022-11-21T06:53:55;6.50;65.30
45044;DHT22;30784;48.490;9.688;2022-11-21T06:56:28;6.50;65.80
45044;DHT22;30784;48.490;9.688;2022-11-21T06:58:54;6.50;65.30
45044;DHT22;30784;48.490;9.688;2022-11-21T07:01:20;6.50;65.30
45044;DHT22;30784;48.490;9.688;2022-11-21T07:03:46;6.50;65.40
45044;DHT22;30784;48.490;9.688;2022-11-21T07:06:12;6.50;65.50
45044;DHT22;30784;48.490;9.688;2022-11-21T07:08:38;6.50;65.60
45044;DHT22;30784;48.490;9.688;2022-11-21T07:11:08;6.50;65.80
45044;DHT22;30784;48.490;9.688;2022-11-21T07:13:34;6.50;65.80
45044;DHT22;30784;48.490;9.688;2022-11-21T07:16:10;6.60;66.00
45044;DHT22;30784;48.490;9.688;2022-11-21T07:18:39;6.60;65.90
45044;DHT22;30784;48.490;9.688;2022-11-21T07:21:06;6.60;66.00
45044;DHT22;30784;48.490;9.688;2022-11-21T07:23:32;6.80;66.00
45044;DHT22;30784;48.490;9.688;2022-11-21T07:25:59;6.80;65.90
45044;DHT22;30784;48.490;9.688;2022-11-21T07:28:29;6.80;65.80
45044;DHT22;30784;48.490;9.688;2022-11-21T07:30:59;6.90;65.70
45044;DHT22;30784;48.490;9.688;2022-11-21T07:33:26;6.90;65.60
45044;DHT22;30784;48.490;9.688;2022-11-21T07:35:53;6.90;65.50
45044;DHT22;30784;48.490;9.688;2022-11-21T07:38:19;7.00;65.50
45044;DHT22;30784;48.490;9.688;2022-11-21T07:40:45;7.00;65.50
45044;DHT22;30784;48.490;9.688;2022-11-21T07:43:10;7.00;65.50
45044;DHT22;30784;48.490;9.688;2022-11-21T07:45:36;7.10;65.40
45044;DHT22;30784;48.490;9.688;2022-11-21T07:48:05;7.10;65.10
45044;DHT22;30784;48.490;9.688;2022-11-21T07:50:31;7.10;64.90
45044;DHT22;30784;48.490;9.688;2022-11-21T07:52:57;7.10;64.90
45044;DHT22;30784;48.490;9.688;2022-11-21T07:55:23;7.10;64.90
45044;DHT22;30784;48.490;9.688;2022-11-21T07:58:00;7.10;64.90
45044;DHT22;30784;48.490;9.688;2022-11-21T08:00:27;7.10;64.90
45044;DHT22;30784;48.490;9.688;2022-11-21T08:02:53;7.10;64.80
45044;DHT22;30784;48.490;9.688;2022-11-21T08:05:19;7.10;64.80
45044;DHT22;30784;48.490;9.688;2022-11-21T08:07:44;7.10;64.80
45044;DHT22;30784;48.490;9.688;2022-11-21T08:10:10;7.20;65.00
45044;DHT22;30784;48.490;9.688;2022-11-21T08:12:35;7.20;64.90
45044;DHT22;30784;48.490;9.688;2022-11-21T08:15:01;7.20;64.80
45044;DHT22;30784;48.490;9.688;2022-11-21T08:17:27;7.20;64.90
45044;DHT22;30784;48.490;9.688;2022-11-21T08:19:52;7.20;64.70
45044;DHT22;30784;48.490;9.688;2022-11-21T08:22:18;7.20;64.20
45044;DHT22;30784;48.490;9.688;2022-11-21T08:24:43;7.20;64.20
45044;DHT22;30784;48.490;9.688;2022-11-21T08:27:09;7.20;64.20
45044;DHT22;30784;48.490;9.688;2022-11-21T08:29:34;7.20;64.10
45044;DHT22;30784;48.490;9.688;2022-11-21T08:32:00;7.20;64.10
45044;DHT22;30784;48.490;9.688;2022-11-21T08:34:25;7.20;63.80
45044;DHT22;30784;48.490;9.688;2022-11-21T08:36:51;7.20;63.80
45044;DHT22;30784;48.490;9.688;2022-11-21T08:39:17;7.20;63.90
45044;DHT22;30784;48.490;9.688;2022-11-21T08:41:43;7.20;64.00
45044;DHT22;30784;48.490;9.688;2022-11-21T08:44:30;7.20;64.10
45044;DHT22;30784;48.490;9.688;2022-11-21T08:46:57;7.30;64.20
45044;DHT22;30784;48.490;9.688;2022-11-21T08:49:23;7.30;64.20
45044;DHT22;30784;48.490;9.688;2022-11-21T08:51:48;7.30;64.20
45044;DHT22;30784;48.490;9.688;2022-11-21T08:54:15;7.30;64.20
45044;DHT22;30784;48.490;9.688;2022-11-21T08:56:41;7.40;64.30
45044;DHT22;30784;48.490;9.688;2022-11-21T08:59:06;7.40;64.30
45044;DHT22;30784;48.490;9.688;2022-11-21T09:01:32;7.40;64.30
45044;DHT22;30784;48.490;9.688;2022-11-21T09:03:58;7.50;64.10
45044;DHT22;30784;48.490;9.688;2022-11-21T09:06:23;7.50;64.20
45044;DHT22;30784;48.490;9.688;2022-11-21T09:08:49;7.50;64.20
45044;DHT22;30784;48.490;9.688;2022-11-21T09:11:14;7.60;64.10
45044;DHT22;30784;48.490;9.688;2022-11-21T09:13:40;7.60;64.10
45044;DHT22;30784;48.490;9.688;2022-11-21T09:16:05;7.70;64.00
45044;DHT22;30784;48.490;9.688;2022-11-21T09:18:53;7.70;63.70
45044;DHT22;30784;48.490;9.688;2022-11-21T09:21:19;7.80;63.60
45044;DHT22;30784;48.490;9.688;2022-11-21T09:23:46;7.80;63.70
45044;DHT22;30784;48.490;9.688;2022-11-21T09:26:11;7.90;63.80
45044;DHT22;30784;48.490;9.688;2022-11-21T09:28:37;7.90;63.70
45044;DHT22;30784;48.490;9.688;2022-11-21T09:31:03;8.00;63.30
45044;DHT22;30784;48.490;9.688;2022-11-21T09:33:29;8.00;63.00
45044;DHT22;30784;48.490;9.688;2022-11-21T09:35:57;8.10;63.00
45044;DHT22;30784;48.490;9.688;2022-11-21T09:38:24;8.10;63.20
45044;DHT22;30784;48.490;9.688;2022-11-21T09:40:51;8.20;62.90
45044;DHT22;30784;48.490;9.688;2022-11-21T09:43:45;8.20;62.70
45044;DHT22;30784;48.490;9.688;2022-11-21T09:46:18;8.20;62.80
45044;DHT22;30784;48.490;9.688;2022-11-21T09:48:55;8.30;62.50
45044;DHT22;30784;48.490;9.688;2022-11-21T09:51:23;8.40;62.30
45044;DHT22;30784;48.490;9.688;2022-11-21T09:54:00;8.40;62.20
45044;DHT22;30784;48.490;9.688;2022-11-21T09:56:30;8.40;62.00
45044;DHT22;30784;48.490;9.688;2022-11-21T09:59:34;8.40;61.70
45044;DHT22;30784;48.490;9.688;2022-11-21T10:02:00;8.50;62.00
45044;DHT22;30784;48.490;9.688;2022-11-21T10:04:27;8.50;61.40
45044;DHT22;30784;48.490;9.688;2022-11-21T10:07:00;8.50;61.50
45044;DHT22;30784;48.490;9.688;2022-11-21T10:09:40;8.60;61.50
45044;DHT22;30784;48.490;9.688;2022-11-21T10:12:39;8.60;61.10
45044;DHT22;30784;48.490;9.688;2022-11-21T10:15:34;8.60;61.00
45044;DHT22;30784;48.490;9.688;2022-11-21T10:21:02;8.60;60.70
45044;DHT22;30784;48.490;9.688;2022-11-21T10:23:45;8.60;60.90
45044;DHT22;30784;48.490;9.688;2022-11-21T10:29:31;8.70;62.00
45044;DHT22;30784;48.490;9.688;2022-11-21T10:34:49;8.90;61.60
45044;DHT22;30784;48.490;9.688;2022-11-21T10:37:26;9.10;61.50
45044;DHT22;30784;48.490;9.688;2022-11-21T10:39:53;9.20;62.10
45044;DHT22;30784;48.490;9.688;2022-11-21T10:42:35;9.40;60.30
45044;DHT22;30784;48.490;9.688;2022-11-21T10:45:03;9.60;60.50
45044;DHT22;30784;48.490;9.688;2022-11-21T10:47:47;9.70;59.90
45044;DHT22;30784;48.490;9.688;2022-11-21T10:50:31;9.90;59.50
45044;DHT22;30784;48.490;9.688;2022-11-21T10:53:21;10.20;59.70
45044;DHT22;30784;48.490;9.688;2022-11-21T10:56:11;10.30;59.20
45044;DHT22;30784;48.490;9.688;2022-11-21T10:58:44;10.50;58.20
45044;DHT22;30784;48.490;9.688;2022-11-21T11:06:37;10.70;57.10
45044;DHT22;30784;48.490;9.688;2022-11-21T11:09:04;10.80;55.70
45044;DHT22;30784;48.490;9.688;2022-11-21T11:11:31;10.80;55.60
45044;DHT22;30784;48.490;9.688;2022-11-21T11:13:57;10.80;56.00
45044;DHT22;30784;48.490;9.688;2022-11-21T11:16:23;10.90;56.40
45044;DHT22;30784;48.490;9.688;2022-11-21T11:18:57;11.00;55.60
45044;DHT22;30784;48.490;9.688;2022-11-21T11:23:53;11.20;54.80
45044;DHT22;30784;48.490;9.688;2022-11-21T11:26:27;11.30;54.60
45044;DHT22;30784;48.490;9.688;2022-11-21T11:29:19;11.40;54.20
45044;DHT22;30784;48.490;9.688;2022-11-21T11:31:55;11.50;54.50
45044;DHT22;30784;48.490;9.688;2022-11-21T11:39:43;11.60;53.20
45044;DHT22;30784;48.490;9.688;2022-11-21T11:42:24;11.60;51.70
45044;DHT22;30784;48.490;9.688;2022-11-21T11:45:15;11.60;51.40
45044;DHT22;30784;48.490;9.688;2022-11-21T11:48:08;11.50;50.80
45044;DHT22;30784;48.490;9.688;2022-11-21T11:53:17;11.50;53.00
45044;DHT22;30784;48.490;9.688;2022-11-21T11:55:44;11.40;51.60
45044;DHT22;30784;48.490;9.688;2022-11-21T12:04:09;11.20;51.90
45044;DHT22;30784;48.490;9.688;2022-11-21T12:07:04;11.20;51.40
45044;DHT22;30784;48.490;9.688;2022-11-21T12:12:20;11.00;50.80
45044;DHT22;30784;48.490;9.688;2022-11-21T12:14:59;11.00;51.90
45044;DHT22;30784;48.490;9.688;2022-11-21T12:20:58;11.00;52.20
45044;DHT22;30784;48.490;9.688;2022-11-21T12:23:57;11.00;52.30
45044;DHT22;30784;48.490;9.688;2022-11-21T12:26:34;11.00;52.60
45044;DHT22;30784;48.490;9.688;2022-11-21T12:40:22;11.10;51.90
45044;DHT22;30784;48.490;9.688;2022-11-21T12:51:42;11.00;51.40
45044;DHT22;30784;48.490;9.688;2022-11-21T12:57:12;11.00;51.00
45044;DHT22;30784;48.490;9.688;2022-11-21T12:59:49;11.00;51.30
45044;DHT22;30784;48.490;9.688;2022-11-21T13:02:27;11.10;51.50
45044;DHT22;30784;48.490;9.688;2022-11-21T13:04:56;11.20;51.30
45044;DHT22;30784;48.490;9.688;2022-11-21T13:07:24;11.30;51.10
45044;DHT22;30784;48.490;9.688;2022-11-21T13:09:54;11.40;50.80
45044;DHT22;30784;48.490;9.688;2022-11-21T13:15:17;11.70;50.30
45044;DHT22;30784;48.490;9.688;2022-11-21T13:17:51;11.80;50.20
45044;DHT22;30784;48.490;9.688;2022-11-21T13:20:32;12.00;49.60
45044;DHT22;30784;48.490;9.688;2022-11-21T13:23:00;12.10;50.10
45044;DHT22;30784;48.490;9.688;2022-11-21T13:30:50;12.40;49.50
45044;DHT22;30784;48.490;9.688;2022-11-21T13:33:46;12.50;48.70
45044;DHT22;30784;48.490;9.688;2022-11-21T13:36:35;12.60;49.60
45044;DHT22;30784;48.490;9.688;2022-11-21T13:46:59;12.70;47.70
45044;DHT22;30784;48.490;9.688;2022-11-21T13:49:47;12.70;47.60
45044;DHT22;30784;48.490;9.688;2022-11-21T13:52:24;12.70;47.00
45044;DHT22;30784;48.490;9.688;2022-11-21T13:55:17;12.70;46.90
45044;DHT22;30784;48.490;9.688;2022-11-21T14:00:58;12.60;47.20
45044;DHT22;30784;48.490;9.688;2022-11-21T14:11:48;12.40;46.90
45044;DHT22;30784;48.490;9.688;2022-11-21T14:14:39;12.30;46.60
45044;DHT22;30784;48.490;9.688;2022-11-21T14:22:45;11.90;46.30
45044;DHT22;30784;48.490;9.688;2022-11-21T14:25:17;11.90;46.20
45044;DHT22;30784;48.490;9.688;2022-11-21T14:27:46;11.70;46.20
45044;DHT22;30784;48.490;9.688;2022-11-21T14:30:55;11.60;46.10
45044;DHT22;30784;48.490;9.688;2022-11-21T14:33:40;11.60;47.20
45044;DHT22;30784;48.490;9.688;2022-11-21T14:36:31;11.50;46.70
45044;DHT22;30784;48.490;9.688;2022-11-21T14:39:04;11.40;46.50
45044;DHT22;30784;48.490;9.688;2022-11-21T14:41:31;11.30;46.40
45044;DHT22;30784;48.490;9.688;2022-11-21T14:46:30;11.20;46.70
45044;DHT22;30784;48.490;9.688;2022-11-21T14:48:56;11.10;46.70
45044;DHT22;30784;48.490;9.688;2022-11-21T14:51:35;11.10;46.80
45044;DHT22;30784;48.490;9.688;2022-11-21T14:54:01;11.00;46.80
45044;DHT22;30784;48.490;9.688;2022-11-21T14:56:32;10.90;46.90
45044;DHT22;30784;48.490;9.688;2022-11-21T14:59:01;10.90;47.20
45044;DHT22;30784;48.490;9.688;2022-11-21T15:01:29;10.80;47.10
45044;DHT22;30784;48.490;9.688;2022-11-21T15:04:02;10.80;47.20
45044;DHT22;30784;48.490;9.688;2022-11-21T15:06:29;10.70;47.10
45044;DHT22;30784;48.490;9.688;2022-11-21T15:08:58;10.60;47.20
45044;DHT22;30784;48.490;9.688;2022-11-21T15:11:34;10.60;47.30
45044;DHT22;30784;48.490;9.688;2022-11-21T15:14:11;10.50;47.30
45044;DHT22;30784;48.490;9.688;2022-11-21T15:16:44;10.40;47.30
45044;DHT22;30784;48.490;9.688;2022-11-21T15:19:10;10.30;47.40
45044;DHT22;30784;48.490;9.688;2022-11-21T15:21:36;10.30;47.60
45044;DHT22;30784;48.490;9.688;2022-11-21T15:26:50;10.10;47.90
45044;DHT22;30784;48.490;9.688;2022-11-21T15:29:20;10.10;47.90
45044;DHT22;30784;48.490;9.688;2022-11-21T15:31:49;10.00;48.00
45044;DHT22;30784;48.490;9.688;2022-11-21T15:34:29;9.90;48.10
45044;DHT22;30784;48.490;9.688;2022-11-21T15:37:11;9.80;48.10
45044;DHT22;30784;48.490;9.688;2022-11-21T15:39:43;9.80;48.20
45044;DHT22;30784;48.490;9.688;2022-11-21T15:45:01;9.70;48.30
45044;DHT22;30784;48.490;9.688;2022-11-21T15:47:27;9.50;48.20
45044;DHT22;30784;48.490;9.688;2022-11-21T15:49:53;9.50;48.40
45044;DHT22;30784;48.490;9.688;2022-11-21T15:52:19;9.40;48.60
45044;DHT22;30784;48.490;9.688;2022-11-21T15:54:45;9.30;48.80
45044;DHT22;30784;48.490;9.688;2022-11-21T15:57:10;9.20;49.00
45044;DHT22;30784;48.490;9.688;2022-11-21T15:59:36;9.10;49.20
45044;DHT22;30784;48.490;9.688;2022-11-21T16:02:01;9.10;49.40
45044;DHT22;30784;48.490;9.688;2022-11-21T16:04:27;9.00;49.60
45044;DHT22;30784;48.490;9.688;2022-11-21T16:06:53;9.00;49.70
45044;DHT22;30784;48.490;9.688;2022-11-21T16:09:19;8.90;49.90
45044;DHT22;30784;48.490;9.688;2022-11-21T16:11:44;8.80;50.00
45044;DHT22;30784;48.490;9.688;2022-11-21T16:14:14;8.70;50.10
45044;DHT22;30784;48.490;9.688;2022-11-21T16:16:40;8.70;50.20
45044;DHT22;30784;48.490;9.688;2022-11-21T16:19:08;8.60;49.70
45044;DHT22;30784;48.490;9.688;2022-11-21T16:21:35;8.60;50.40
45044;DHT22;30784;48.490;9.688;2022-11-21T16:24:01;8.50;50.50
45044;DHT22;30784;48.490;9.688;2022-11-21T16:26:26;8.50;50.90
45044;DHT22;30784;48.490;9.688;2022-11-21T16:28:57;8.40;51.00
45044;DHT22;30784;48.490;9.688;2022-11-21T16:31:28;8.30;51.10
45044;DHT22;30784;48.490;9.688;2022-11-21T16:33:54;8.30;51.40
45044;DHT22;30784;48.490;9.688;2022-11-21T16:38:47;8.20;51.40
45044;DHT22;30784;48.490;9.688;2022-11-21T16:41:12;8.00;51.90
45044;DHT22;30784;48.490;9.688;2022-11-21T16:43:48;8.00;52.00
45044;DHT22;30784;48.490;9.688;2022-11-21T16:46:14;7.90;52.10
45044;DHT22;30784;48.490;9.688;2022-11-21T16:48:42;7.80;52.30
45044;DHT22;30784;48.490;9.688;2022-11-21T16:51:15;7.70;52.50
45044;DHT22;30784;48.490;9.688;2022-11-21T16:53:41;7.70;52.70
45044;DHT22;30784;48.490;9.688;2022-11-21T16:56:08;7.60;52.80
45044;DHT22;30784;48.490;9.688;2022-11-21T16:58:38;7.50;53.00
45044;DHT22;30784;48.490;9.688;2022-11-21T17:01:15;7.50;53.10
45044;DHT22;30784;48.490;9.688;2022-11-21T17:03:43;7.50;53.10
45044;DHT22;30784;48.490;9.688;2022-11-21T17:06:10;7.40;53.10
45044;DHT22;30784;48.490;9.688;2022-11-21T17:08:36;7.40;53.50
45044;DHT22;30784;48.490;9.688;2022-11-21T17:11:15;7.40;53.40
45044;DHT22;30784;48.490;9.688;2022-11-21T17:13:42;7.30;53.30
45044;DHT22;30784;48.490;9.688;2022-11-21T17:16:09;7.30;53.60
45044;DHT22;30784;48.490;9.688;2022-11-21T17:18:35;7.30;53.40
45044;DHT22;30784;48.490;9.688;2022-11-21T17:21:08;7.30;53.70
45044;DHT22;30784;48.490;9.688;2022-11-21T17:23:36;7.20;53.60
45044;DHT22;30784;48.490;9.688;2022-11-21T17:26:03;7.20;53.70
45044;DHT22;30784;48.490;9.688;2022-11-21T17:28:30;7.20;53.60
45044;DHT22;30784;48.490;9.688;2022-11-21T17:30:56;7.20;53.70
45044;DHT22;30784;48.490;9.688;2022-11-21T17:33:21;7.20;53.90
45044;DHT22;30784;48.490;9.688;2022-11-21T17:35:47;7.10;54.00
45044;DHT22;30784;48.490;9.688;2022-11-21T17:38:12;7.10;54.00
45044;DHT22;30784;48.490;9.688;2022-11-21T17:40:38;7.10;54.10
45044;DHT22;30784;48.490;9.688;2022-11-21T17:43:03;7.10;54.20
45044;DHT22;30784;48.490;9.688;2022-11-21T17:45:29;7.10;54.30
45044;DHT22;30784;48.490;9.688;2022-11-21T17:47:55;7.10;54.30
45044;DHT22;30784;48.490;9.688;2022-11-21T17:50:20;7.00;54.40
45044;DHT22;30784;48.490;9.688;2022-11-21T17:52:46;7.10;54.50